Time;durP1;ratioP1;P1;durP2;ratioP2;P2;SDS_P1;SDS_P2;PMS_P1;PMS_P2;Temp;Humidity;BMP_temperature;BMP_pressure;BME280_temperature;BME280_humidity;BME280_pressure;Samples;Min_cycle;Max_cycle;Signal;HPM_P1;HPM_P2
2023/11/15 00:00:34;;;;;;;0.75;0.73;;;;;;;11.15;93.66;99408.94;4951838;28;20501;-73
2023/11/15 00:03:00;;;;;;;1.17;0.93;;;;;;;11.11;93.84;99412.81;4937808;28;20037;-75
2023/11/15 00:05:27;;;;;;;0.40;0.40;;;;;;;11.11;94.11;99418.94;4956387;28;20034;-74
2023/11/15 00:07:55;;;;;;;0.68;0.68;;;;;;;11.08;93.71;99421.66;4954827;28;20079;-74
2023/11/15 00:10:24;;;;;;;0.40;0.40;;;;;;;11.03;94.00;99430.13;4967930;28;20375;-73
2023/11/15 00:12:49;;;;;;;0.57;0.50;;;;;;;11.10;94.28;99428.19;4972871;28;20406;-74
2023/11/15 00:15:15;;;;;;;0.80;0.60;;;;;;;11.12;94.25;99428.56;4958313;28;20119;-74
2023/11/15 00:17:41;;;;;;;0.82;0.65;;;;;;;10.95;94.51;99436.69;4935404;28;20031;-74
2023/11/15 00:20:08;;;;;;;1.02;0.60;;;;;;;10.98;94.48;99438.59;4952865;28;20540;-74
2023/11/15 00:22:33;;;;;;;0.50;0.50;;;;;;;10.96;94.46;99446.28;4956065;28;20404;-74
2023/11/15 00:24:59;;;;;;;0.85;0.50;;;;;;;10.97;94.41;99447.84;4953556;28;20027;-74
2023/11/15 00:27:26;;;;;;;0.38;0.38;;;;;;;11.02;94.64;99456.28;4953167;28;20073;-73
2023/11/15 00:29:52;;;;;;;0.50;0.50;;;;;;;11.02;94.75;99464.38;4951910;28;20126;-73
2023/11/15 00:32:19;;;;;;;0.43;0.43;;;;;;;11.05;94.82;99469.00;4954455;28;20517;-74
2023/11/15 00:34:45;;;;;;;1.23;0.57;;;;;;;11.11;94.17;99482.84;4953064;28;20037;-73
2023/11/15 00:37:11;;;;;;;0.57;0.45;;;;;;;11.16;94.52;99479.75;4953610;28;20023;-73
2023/11/15 00:39:40;;;;;;;0.52;0.52;;;;;;;11.29;94.06;99494.34;4956209;28;20081;-73
2023/11/15 00:42:07;;;;;;;1.85;0.30;;;;;;;11.33;93.36;99495.13;4954942;28;20031;-74
2023/11/15 00:44:33;;;;;;;0.40;0.40;;;;;;;11.30;93.36;99498.59;4960862;28;20074;-73
2023/11/15 00:46:58;;;;;;;0.50;0.50;;;;;;;11.26;92.53;99503.22;4956243;28;20023;-73
2023/11/15 00:49:24;;;;;;;1.33;0.90;;;;;;;11.19;93.05;99511.34;4959806;28;20037;-73
2023/11/15 00:51:50;;;;;;;0.57;0.57;;;;;;;11.09;93.89;99509.41;4959266;28;20036;-73
2023/11/15 00:54:16;;;;;;;1.05;0.77;;;;;;;11.12;93.08;99511.31;4958381;28;20461;-73
2023/11/15 00:56:41;;;;;;;0.90;0.68;;;;;;;11.13;93.41;99510.94;4975077;28;20035;-74
2023/11/15 00:59:07;;;;;;;1.02;0.60;;;;;;;11.13;93.53;99520.97;4940416;28;20053;-74
2023/11/15 01:01:33;;;;;;;0.77;0.70;;;;;;;11.15;93.02;99526.72;4970180;28;20129;-74
2023/11/15 01:03:58;;;;;;;0.95;0.85;;;;;;;11.16;92.61;99525.56;4954922;28;20110;-73
2023/11/15 01:06:27;;;;;;;0.85;0.63;;;;;;;11.17;93.12;99535.19;4939575;28;20571;-73
2023/11/15 01:08:54;;;;;;;0.60;0.40;;;;;;;11.26;93.28;99533.66;4974428;28;20543;-74
2023/11/15 01:11:20;;;;;;;0.90;0.70;;;;;;;11.27;92.63;99545.19;4942438;28;20070;-73
2023/11/15 01:13:46;;;;;;;0.85;0.85;;;;;;;11.28;92.63;99554.81;4964385;28;20055;-74
2023/11/15 01:16:17;;;;;;;1.35;1.02;;;;;;;11.32;92.80;99556.38;4954288;28;20126;-74
2023/11/15 01:18:45;;;;;;;1.13;1.00;;;;;;;11.23;92.42;99561.34;4958433;28;20401;-74
2023/11/15 01:21:11;;;;;;;1.33;0.88;;;;;;;11.24;92.98;99564.81;4945277;28;20035;-73
2023/11/15 01:23:37;;;;;;;0.80;0.80;;;;;;;11.17;92.95;99567.53;4960774;28;20524;-73
2023/11/15 01:26:05;;;;;;;0.57;0.57;;;;;;;11.14;92.87;99579.84;4957575;28;20556;-74
2023/11/15 01:28:31;;;;;;;1.45;0.60;;;;;;;11.21;93.70;99573.66;4955982;28;20050;-74
2023/11/15 01:30:56;;;;;;;0.65;0.63;;;;;;;11.19;93.03;99574.06;4955384;28;20066;-74
2023/11/15 01:33:22;;;;;;;1.02;0.75;;;;;;;11.20;92.76;99583.69;4958392;28;20030;-74
2023/11/15 01:35:48;;;;;;;0.77;0.60;;;;;;;11.24;92.79;99589.09;4962308;28;20118;-74
2023/11/15 01:38:15;;;;;;;0.80;0.80;;;;;;;11.19;91.77;99586.78;4958505;28;20401;-74
2023/11/15 01:40:41;;;;;;;1.27;0.88;;;;;;;11.10;92.58;99602.53;4960121;28;20035;-73
2023/11/15 01:43:10;;;;;;;1.30;0.88;;;;;;;11.12;92.37;99605.63;4938393;29;20039;-74
2023/11/15 01:45:36;;;;;;;1.20;1.10;;;;;;;11.17;92.83;99621.44;4957335;28;20019;-74
2023/11/15 01:48:02;;;;;;;2.70;1.30;;;;;;;11.20;92.51;99621.44;4957067;28;20050;-73
2023/11/15 01:50:29;;;;;;;1.20;1.02;;;;;;;11.14;92.09;99617.56;4971944;28;20027;-74
2023/11/15 01:52:55;;;;;;;1.17;0.77;;;;;;;11.12;92.06;99629.88;4958676;28;20038;-74
2023/11/15 01:55:21;;;;;;;1.60;0.80;;;;;;;11.12;92.13;99632.56;4956797;28;20027;-74
2023/11/15 01:57:49;;;;;;;1.05;0.88;;;;;;;11.13;91.95;99637.56;4959505;28;20625;-73
2023/11/15 02:00:15;;;;;;;1.10;1.00;;;;;;;11.12;92.41;99646.03;4954165;28;20031;-73
2023/11/15 02:02:42;;;;;;;2.20;1.08;;;;;;;10.89;92.74;99646.38;4955369;28;20038;-74
2023/11/15 02:05:09;;;;;;;1.05;0.85;;;;;;;10.93;93.16;99666.03;4969334;28;20086;-73
2023/11/15 02:07:37;;;;;;;0.70;0.70;;;;;;;10.98;92.93;99659.47;4962749;28;20135;-74
2023/11/15 02:10:04;;;;;;;1.73;1.52;;;;;;;11.00;92.54;99665.25;4938189;28;20486;-74
2023/11/15 02:12:30;;;;;;;2.72;1.52;;;;;;;10.80;93.99;99668.28;4964044;28;20243;-74
2023/11/15 02:14:56;;;;;;;1.35;0.80;;;;;;;10.87;93.48;99673.72;4936589;28;20035;-75
2023/11/15 02:17:24;;;;;;;1.52;1.10;;;;;;;10.98;92.79;99672.94;4938157;28;20023;-73
2023/11/15 02:19:50;;;;;;;1.83;1.40;;;;;;;10.93;93.03;99671.41;4942077;28;20094;-73
2023/11/15 02:22:15;;;;;;;2.40;1.20;;;;;;;10.90;93.27;99672.94;4971156;28;20027;-74
2023/11/15 02:24:41;;;;;;;2.92;1.10;;;;;;;10.92;93.36;99677.19;4921814;28;20062;-74
2023/11/15 02:27:07;;;;;;;2.47;1.55;;;;;;;10.91;93.27;99679.09;4954696;28;20441;-73
2023/11/15 02:29:33;;;;;;;2.55;1.55;;;;;;;10.86;93.63;99684.84;4954836;28;20106;-73
2023/11/15 02:31:58;;;;;;;1.65;1.15;;;;;;;10.90;93.20;99685.63;4957298;28;20030;-74
2023/11/15 02:34:24;;;;;;;1.75;1.20;;;;;;;10.79;94.08;99688.31;4955893;28;20035;-73
2023/11/15 02:36:49;;;;;;;3.70;1.55;;;;;;;10.86;93.62;99696.38;4955322;28;20039;-74
2023/11/15 02:39:15;;;;;;;3.72;2.15;;;;;;;10.98;93.43;99707.97;4937161;28;20023;-74
2023/11/15 02:41:40;;;;;;;1.08;0.82;;;;;;;10.85;93.42;99711.03;4954666;28;20138;-73
2023/11/15 02:44:06;;;;;;;3.60;1.90;;;;;;;10.85;93.53;99712.94;4955594;28;20039;-73
2023/11/15 02:46:32;;;;;;;2.35;1.70;;;;;;;10.81;93.70;99718.31;4939551;28;20621;-73
2023/11/15 02:48:57;;;;;;;4.75;2.25;;;;;;;10.71;95.13;99726.34;4955632;28;20025;-74
2023/11/15 02:51:22;;;;;;;3.33;1.45;;;;;;;10.70;94.62;99727.50;4953980;28;20035;-74
2023/11/15 02:53:51;;;;;;;2.15;1.02;;;;;;;10.78;94.63;99743.28;4969333;28;20035;-73
2023/11/15 02:56:18;;;;;;;2.83;1.65;;;;;;;10.68;94.37;99740.56;4956946;28;20038;-75
2023/11/15 02:58:43;;;;;;;3.53;1.67;;;;;;;10.61;94.90;99753.97;4941179;28;20512;-74
2023/11/15 03:01:11;;;;;;;2.30;1.58;;;;;;;10.72;94.78;99765.59;4966583;28;20063;-73
2023/11/15 03:03:37;;;;;;;2.58;1.63;;;;;;;10.68;94.44;99756.72;4939418;28;20849;-73
2023/11/15 03:06:03;;;;;;;2.58;1.35;;;;;;;10.69;94.75;99759.03;4955000;28;20034;-74
2023/11/15 03:08:32;;;;;;;2.53;1.27;;;;;;;10.66;94.49;99765.19;4940388;28;20019;-74
2023/11/15 03:11:01;;;;;;;3.10;1.50;;;;;;;10.78;94.60;99767.53;4938848;29;20520;-74
2023/11/15 03:13:26;;;;;;;2.65;1.73;;;;;;;10.82;94.05;99779.09;4939436;28;20035;-73
2023/11/15 03:15:52;;;;;;;2.28;1.60;;;;;;;10.82;94.08;99781.78;4957768;28;20583;-74
2023/11/15 03:18:20;;;;;;;2.67;1.77;;;;;;;10.56;95.13;99776.66;4940692;28;20035;-74
2023/11/15 03:20:45;;;;;;;2.38;1.40;;;;;;;10.68;94.46;99789.78;4953050;28;20405;-73
2023/11/15 03:23:11;;;;;;;2.80;1.67;;;;;;;10.83;94.05;99790.66;4949053;28;20041;-73
2023/11/15 03:25:37;;;;;;;2.67;1.88;;;;;;;10.73;94.27;99794.06;4935407;28;20049;-74
2023/11/15 03:28:03;;;;;;;3.42;1.83;;;;;;;10.65;94.73;99790.53;4967767;28;20031;-74
2023/11/15 03:30:31;;;;;;;3.75;2.15;;;;;;;10.70;94.44;99803.63;4967687;28;20102;-75
2023/11/15 03:32:57;;;;;;;2.33;1.77;;;;;;;10.61;94.22;99805.91;4951779;28;20609;-73
2023/11/15 03:35:23;;;;;;;4.25;1.92;;;;;;;10.71;94.24;99809.81;4950219;28;20039;-71
2023/11/15 03:37:54;;;;;;;2.40;1.52;;;;;;;10.72;93.75;99806.72;4954269;28;20023;-74
2023/11/15 03:40:19;;;;;;;2.45;1.63;;;;;;;10.78;93.75;99815.25;4955595;28;20489;-73
2023/11/15 03:42:46;;;;;;;3.55;1.90;;;;;;;10.92;93.64;99819.94;4952034;28;20039;-74
2023/11/15 03:45:13;;;;;;;2.20;1.40;;;;;;;10.84;92.56;99824.50;4918246;28;20046;-72
2023/11/15 03:47:39;;;;;;;3.88;1.83;;;;;;;10.78;93.69;99829.47;4947964;28;20031;-73
2023/11/15 03:50:05;;;;;;;2.53;1.52;;;;;;;10.83;93.42;99823.75;4964352;28;20509;-73
2023/11/15 03:52:31;;;;;;;2.75;2.03;;;;;;;10.81;93.64;99836.81;4952285;28;20169;-74
2023/11/15 03:54:57;;;;;;;3.17;1.85;;;;;;;10.74;93.63;99838.69;4949675;28;20518;-74
2023/11/15 03:57:22;;;;;;;3.45;2.20;;;;;;;10.78;93.66;99848.31;4965292;28;20038;-73
2023/11/15 03:59:48;;;;;;;2.70;1.92;;;;;;;10.80;93.61;99845.28;4958732;28;20031;-74
2023/11/15 04:02:15;;;;;;;3.60;1.70;;;;;;;10.86;92.96;99849.91;4939958;28;20039;-74
2023/11/15 04:04:43;;;;;;;2.97;1.95;;;;;;;10.88;93.17;99861.09;4914636;28;20039;-74
2023/11/15 04:07:11;;;;;;;3.10;1.85;;;;;;;10.73;93.58;99864.06;4953203;28;20035;-73
2023/11/15 04:09:38;;;;;;;3.97;2.17;;;;;;;10.79;93.98;99870.66;4961848;28;20041;-73
2023/11/15 04:12:04;;;;;;;3.70;1.63;;;;;;;10.79;93.68;99867.94;4958299;28;20027;-73
2023/11/15 04:14:30;;;;;;;2.47;1.55;;;;;;;10.82;93.41;99869.88;4961387;28;20045;-74
2023/11/15 04:16:55;;;;;;;3.10;1.88;;;;;;;10.76;93.58;99874.09;4953682;28;20023;-74
2023/11/15 04:19:22;;;;;;;2.72;1.70;;;;;;;10.77;93.60;99879.09;4939928;28;20042;-73
2023/11/15 04:21:48;;;;;;;3.33;2.25;;;;;;;10.73;93.40;99880.22;4953665;28;20039;-74
2023/11/15 04:24:14;;;;;;;4.97;2.30;;;;;;;10.61;94.21;99886.69;4957327;28;20413;-73
2023/11/15 04:26:40;;;;;;;2.55;1.98;;;;;;;10.65;93.60;99881.31;4964105;28;20505;-74
2023/11/15 04:29:06;;;;;;;3.83;2.20;;;;;;;10.65;93.56;99889.38;4960567;28;20078;-74
2023/11/15 04:31:34;;;;;;;2.75;1.88;;;;;;;10.75;93.29;99891.38;4939751;28;20031;-73
2023/11/15 04:34:02;;;;;;;3.95;2.40;;;;;;;10.66;93.53;99899.81;4957398;28;20485;-72
2023/11/15 04:36:33;;;;;;;3.00;2.30;;;;;;;10.55;94.31;99896.25;4950580;28;20035;-75
2023/11/15 04:38:58;;;;;;;2.92;1.98;;;;;;;10.52;94.07;99901.59;4956377;28;20042;-74
2023/11/15 04:41:24;;;;;;;2.67;1.85;;;;;;;10.55;94.04;99915.09;4944279;28;20502;-73
2023/11/15 04:43:49;;;;;;;4.57;2.45;;;;;;;10.53;93.79;99913.94;4944986;29;20039;-73
2023/11/15 04:46:18;;;;;;;3.47;2.20;;;;;;;10.55;94.25;99912.41;4957168;28;20031;-74
2023/11/15 04:48:46;;;;;;;3.30;1.92;;;;;;;10.55;94.33;99923.16;4969491;28;20112;-73
2023/11/15 04:51:12;;;;;;;3.55;2.17;;;;;;;10.62;94.14;99931.31;4955319;28;20126;-73
2023/11/15 04:53:37;;;;;;;3.08;1.85;;;;;;;10.56;93.73;99935.50;4954666;28;20127;-74
2023/11/15 04:56:03;;;;;;;4.05;2.67;;;;;;;10.65;94.09;99940.53;4956162;28;20035;-73
2023/11/15 04:58:29;;;;;;;2.88;1.95;;;;;;;10.68;93.61;99948.66;4964884;28;20037;-74
2023/11/15 05:00:56;;;;;;;4.85;2.30;;;;;;;10.76;93.13;99950.25;4963391;28;20023;-74
2023/11/15 05:03:25;;;;;;;2.60;1.90;;;;;;;10.75;92.86;99951.41;4957199;28;20038;-74
2023/11/15 05:05:51;;;;;;;4.82;2.35;;;;;;;10.61;93.44;99953.97;4964308;28;20117;-74
2023/11/15 05:08:17;;;;;;;2.75;1.80;;;;;;;10.65;93.08;99954.78;4961123;28;20518;-73
2023/11/15 05:10:42;;;;;;;2.40;1.83;;;;;;;10.62;93.25;99963.63;4962484;28;20066;-74
2023/11/15 05:13:08;;;;;;;3.47;1.85;;;;;;;10.56;93.61;99969.72;4973517;28;20066;-73
2023/11/15 05:15:33;;;;;;;3.15;1.77;;;;;;;10.66;92.94;99975.19;4971749;28;20053;-73
2023/11/15 05:18:00;;;;;;;4.38;2.50;;;;;;;10.69;92.88;99979.06;4959648;28;20078;-74
2023/11/15 05:20:26;;;;;;;2.70;1.67;;;;;;;10.69;92.73;99979.84;4942323;28;20035;-74
2023/11/15 05:22:51;;;;;;;2.97;2.00;;;;;;;10.65;92.72;99981.72;4962426;28;20037;-73
2023/11/15 05:25:18;;;;;;;3.50;1.95;;;;;;;10.67;92.82;99982.13;4968013;28;20035;-74
2023/11/15 05:27:45;;;;;;;3.13;1.85;;;;;;;10.65;92.66;99994.41;4957520;28;20065;-74
2023/11/15 05:30:11;;;;;;;3.42;2.00;;;;;;;10.67;93.11;100000.19;4935696;29;20063;-73
2023/11/15 05:32:36;;;;;;;4.00;1.95;;;;;;;10.69;93.24;100000.59;4961916;28;20071;-74
2023/11/15 05:35:02;;;;;;;4.13;2.35;;;;;;;10.67;92.84;100009.03;4955759;28;20038;-71
2023/11/15 05:37:27;;;;;;;3.60;2.20;;;;;;;10.71;93.22;100004.47;4957283;28;20046;-74
2023/11/15 05:39:52;;;;;;;4.25;2.00;;;;;;;10.68;92.79;100009.81;4956679;28;20106;-74
2023/11/15 05:42:18;;;;;;;3.35;2.35;;;;;;;10.68;93.02;100018.66;4957719;28;20045;-74
2023/11/15 05:44:43;;;;;;;2.22;1.58;;;;;;;10.60;93.19;100013.59;4962176;28;20469;-74
2023/11/15 05:47:09;;;;;;;4.40;1.83;;;;;;;10.72;92.97;100027.53;4956566;28;20043;-74
2023/11/15 05:49:34;;;;;;;2.65;1.73;;;;;;;10.70;92.69;100023.69;4957922;28;20093;-73
2023/11/15 05:52:02;;;;;;;4.47;2.13;;;;;;;10.78;92.46;100025.31;4955942;28;20031;-74
2023/11/15 05:54:27;;;;;;;9.13;2.22;;;;;;;10.66;92.63;100023.66;4957209;28;20039;-74
2023/11/15 05:56:53;;;;;;;5.22;2.35;;;;;;;10.67;92.25;100030.59;4964985;28;20070;-74
2023/11/15 05:59:19;;;;;;;3.00;1.85;;;;;;;10.68;92.11;100031.38;4941128;28;20665;-73
2023/11/15 06:01:45;;;;;;;6.47;2.00;;;;;;;10.69;92.27;100039.06;4953595;28;20619;-73
2023/11/15 06:04:10;;;;;;;5.68;1.75;;;;;;;10.58;92.63;100034.72;4952184;28;20031;-71
2023/11/15 06:06:36;;;;;;;3.13;2.00;;;;;;;10.50;92.56;100036.56;4964682;28;20035;-73
2023/11/15 06:09:04;;;;;;;3.17;2.08;;;;;;;10.63;92.46;100051.31;4955364;28;20041;-73
2023/11/15 06:11:30;;;;;;;2.25;1.48;;;;;;;10.72;92.83;100042.94;4960116;28;20489;-74
2023/11/15 06:13:56;;;;;;;3.15;1.80;;;;;;;10.74;92.00;100051.44;4951703;28;20382;-71
2023/11/15 06:16:22;;;;;;;3.97;1.98;;;;;;;10.65;92.27;100059.81;4950474;28;20038;-73
2023/11/15 06:18:48;;;;;;;3.20;1.83;;;;;;;10.65;92.24;100064.41;4952095;28;20035;-74
2023/11/15 06:21:18;;;;;;;3.10;1.95;;;;;;;10.56;93.01;100066.63;4951822;28;20043;-71
2023/11/15 06:23:43;;;;;;;4.25;1.88;;;;;;;10.65;92.99;100073.25;4944032;28;20521;-72
2023/11/15 06:26:11;;;;;;;2.80;1.70;;;;;;;10.72;92.30;100078.72;4956689;28;20039;-74
2023/11/15 06:28:36;;;;;;;2.75;1.65;;;;;;;10.74;91.94;100083.75;4951342;28;20042;-75
2023/11/15 06:31:03;;;;;;;3.20;2.00;;;;;;;10.58;92.26;100088.56;4954266;28;20035;-74
2023/11/15 06:33:30;;;;;;;2.92;1.90;;;;;;;10.55;93.70;100086.63;4952360;28;20728;-74
2023/11/15 06:35:56;;;;;;;3.45;2.28;;;;;;;10.63;92.95;100094.41;4958810;28;20031;-72
2023/11/15 06:38:21;;;;;;;3.78;2.38;;;;;;;10.68;92.25;100098.69;4927291;28;20525;-74
2023/11/15 06:40:49;;;;;;;2.75;1.67;;;;;;;10.59;92.42;100098.97;4954449;28;20039;-75
2023/11/15 06:43:15;;;;;;;2.45;1.60;;;;;;;10.61;92.58;100118.22;4952861;28;20405;-71
2023/11/15 06:45:40;;;;;;;2.65;1.80;;;;;;;10.60;92.69;100116.69;4942241;28;20039;-74
2023/11/15 06:48:07;;;;;;;2.90;1.95;;;;;;;10.63;92.43;100124.03;4932823;28;20485;-75
2023/11/15 06:50:34;;;;;;;3.47;1.75;;;;;;;10.64;92.36;100133.66;4958389;28;20057;-76
2023/11/15 06:53:02;;;;;;;3.15;1.92;;;;;;;10.63;92.04;100128.63;4951788;28;20124;-74
2023/11/15 06:55:28;;;;;;;4.00;1.67;;;;;;;10.51;92.59;100140.41;4954466;28;20143;-74
2023/11/15 06:57:53;;;;;;;3.13;2.10;;;;;;;10.41;93.08;100143.78;4967983;28;20117;-72
2023/11/15 07:00:19;;;;;;;2.58;2.33;;;;;;;10.52;92.88;100143.88;4956373;28;20043;-73
2023/11/15 07:02:45;;;;;;;3.15;2.22;;;;;;;10.55;92.47;100149.31;4959596;28;20043;-74
2023/11/15 07:05:11;;;;;;;3.50;1.95;;;;;;;10.45;92.61;100163.41;4967654;28;20062;-75
2023/11/15 07:07:37;;;;;;;4.70;2.13;;;;;;;10.56;92.39;100167.03;4957297;28;20039;-74
2023/11/15 07:10:05;;;;;;;2.80;1.58;;;;;;;10.59;92.02;100168.97;4956937;28;20026;-75
2023/11/15 07:12:31;;;;;;;2.88;1.83;;;;;;;10.62;92.25;100170.94;4964789;28;20054;-73
2023/11/15 07:14:57;;;;;;;3.83;2.05;;;;;;;10.63;92.12;100179.78;4967191;28;20035;-74
2023/11/15 07:17:23;;;;;;;3.78;2.20;;;;;;;10.60;92.34;100170.53;4958018;28;20098;-73
2023/11/15 07:19:49;;;;;;;4.88;2.22;;;;;;;10.63;92.51;100175.19;4955819;28;20126;-74
2023/11/15 07:22:15;;;;;;;4.40;1.90;;;;;;;10.65;92.67;100183.66;4956475;28;20458;-73
2023/11/15 07:24:42;;;;;;;2.13;1.65;;;;;;;10.70;93.11;100186.03;4961177;28;20130;-74
2023/11/15 07:27:08;;;;;;;1.65;1.13;;;;;;;10.79;92.29;100194.63;4951714;28;20039;-72
2023/11/15 07:29:37;;;;;;;3.03;2.05;;;;;;;10.82;91.19;100193.09;4960374;28;20096;-75
2023/11/15 07:32:04;;;;;;;4.63;1.98;;;;;;;10.78;91.86;100193.06;4952165;28;20085;-73
2023/11/15 07:34:32;;;;;;;3.75;2.08;;;;;;;10.66;92.51;100190.63;4954759;28;20478;-74
2023/11/15 07:36:58;;;;;;;2.00;1.38;;;;;;;10.73;92.52;100204.16;4947439;28;20504;-74
2023/11/15 07:39:24;;;;;;;1.98;1.42;;;;;;;10.74;91.87;100196.88;4953393;28;20036;-74
2023/11/15 07:41:51;;;;;;;3.90;1.85;;;;;;;10.56;92.16;100202.03;4951117;28;20524;-74
2023/11/15 07:44:21;;;;;;;5.72;1.83;;;;;;;10.66;92.09;100211.38;4958288;28;20034;-74
2023/11/15 07:46:49;;;;;;;4.07;2.17;;;;;;;10.67;91.29;100213.69;4951822;28;20125;-75
2023/11/15 07:49:18;;;;;;;4.10;2.50;;;;;;;10.62;91.34;100214.03;4949656;28;20100;-74
2023/11/15 07:51:46;;;;;;;3.47;2.05;;;;;;;10.64;91.86;100225.22;4954207;28;20054;-74
2023/11/15 07:54:13;;;;;;;2.88;1.75;;;;;;;10.56;92.35;100223.56;4951169;28;20023;-74
2023/11/15 07:56:39;;;;;;;3.55;2.25;;;;;;;10.69;92.06;100234.88;4959343;28;20560;-75
2023/11/15 07:59:05;;;;;;;4.55;2.45;;;;;;;10.79;92.15;100237.72;4960165;28;20039;-74
2023/11/15 08:01:30;;;;;;;2.92;1.83;;;;;;;10.89;92.01;100242.47;4952602;28;20053;-76
2023/11/15 08:03:56;;;;;;;2.78;1.88;;;;;;;11.06;91.84;100243.00;4952888;28;20030;-74
2023/11/15 08:06:22;;;;;;;2.28;1.52;;;;;;;11.13;91.97;100241.16;4959465;28;20046;-75
2023/11/15 08:08:48;;;;;;;2.05;1.50;;;;;;;11.26;91.57;100250.59;4951940;28;20031;-74
2023/11/15 08:11:14;;;;;;;2.63;1.60;;;;;;;11.16;90.69;100255.84;4953558;28;20030;-74
2023/11/15 08:13:40;;;;;;;1.58;1.35;;;;;;;11.21;90.83;100258.19;4953330;28;20031;-74
2023/11/15 08:16:12;;;;;;;4.05;1.95;;;;;;;11.31;90.23;100266.41;4950254;28;20039;-74
2023/11/15 08:18:38;;;;;;;2.13;1.60;;;;;;;11.25;90.06;100275.19;4937460;28;20138;-76
2023/11/15 08:21:05;;;;;;;2.03;1.40;;;;;;;11.27;90.21;100270.19;4953519;28;20035;-74
2023/11/15 08:23:31;;;;;;;3.10;1.90;;;;;;;11.30;89.77;100272.97;4966280;28;20038;-74
2023/11/15 08:26:02;;;;;;;2.63;1.58;;;;;;;11.27;90.25;100272.91;4953529;28;20113;-74
2023/11/15 08:28:27;;;;;;;2.88;2.10;;;;;;;11.30;90.29;100274.88;4949741;28;20039;-74
2023/11/15 08:30:53;;;;;;;1.40;1.25;;;;;;;11.35;90.09;100271.84;4949904;28;20070;-75
2023/11/15 08:33:21;;;;;;;2.33;1.52;;;;;;;11.38;89.87;100271.13;4938321;28;20117;-74
2023/11/15 08:35:47;;;;;;;2.97;1.75;;;;;;;11.34;89.86;100275.69;4935014;28;20027;-74
2023/11/15 08:38:14;;;;;;;2.92;1.88;;;;;;;11.48;89.55;100283.91;4952369;28;20035;-74
2023/11/15 08:40:39;;;;;;;2.45;1.75;;;;;;;11.57;89.49;100284.41;4953665;28;20035;-74
2023/11/15 08:43:07;;;;;;;3.42;2.28;;;;;;;11.62;88.72;100287.53;4952044;28;20071;-74
2023/11/15 08:45:33;;;;;;;3.25;2.08;;;;;;;11.63;88.15;100286.38;4936782;28;20039;-75
2023/11/15 08:47:58;;;;;;;3.75;2.42;;;;;;;11.68;87.86;100283.41;4951039;28;20489;-74
2023/11/15 08:50:24;;;;;;;3.97;2.22;;;;;;;11.69;88.04;100300.38;4950748;28;20297;-74
2023/11/15 08:52:51;;;;;;;3.35;1.92;;;;;;;11.75;88.02;100294.25;4937236;29;20035;-74
2023/11/15 08:55:17;;;;;;;3.75;2.15;;;;;;;11.79;87.79;100289.66;4938313;28;20485;-74
2023/11/15 08:57:42;;;;;;;2.60;1.75;;;;;;;11.89;86.44;100300.91;4952207;28;20039;-75
2023/11/15 09:00:15;;;;;;;3.40;1.90;;;;;;;11.87;85.46;100301.28;4960266;28;20042;-70
2023/11/15 09:02:44;;;;;;;4.68;1.77;;;;;;;11.73;85.44;100299.22;4955781;28;20501;-74
2023/11/15 09:05:11;;;;;;;4.20;2.58;;;;;;;11.69;85.79;100303.81;4955295;28;20186;-74
2023/11/15 09:07:38;;;;;;;2.90;2.17;;;;;;;11.70;85.23;100312.69;4955493;28;20035;-75
2023/11/15 09:10:08;;;;;;;4.05;2.28;;;;;;;11.63;85.44;100307.97;4968925;28;20506;-74
2023/11/15 09:12:35;;;;;;;9.32;2.67;;;;;;;11.62;85.74;100302.94;4954158;28;20051;-74
2023/11/15 09:15:04;;;;;;;5.05;2.30;;;;;;;11.57;85.71;100309.47;4968967;28;20485;-73
2023/11/15 09:17:30;;;;;;;2.70;2.00;;;;;;;11.62;85.32;100317.22;4955146;28;20453;-75
2023/11/15 09:19:59;;;;;;;2.38;1.85;;;;;;;11.56;85.63;100326.00;4955521;28;20031;-75
2023/11/15 09:22:25;;;;;;;4.60;2.47;;;;;;;11.56;85.50;100317.91;4953169;28;20041;-74
2023/11/15 09:24:53;;;;;;;5.13;2.75;;;;;;;11.54;85.30;100320.19;4938351;29;20481;-74
2023/11/15 09:27:24;;;;;;;3.53;2.08;;;;;;;11.62;85.60;100329.91;4955498;28;20155;-74
2023/11/15 09:29:50;;;;;;;2.90;1.75;;;;;;;11.63;84.37;100334.94;4968863;28;20534;-74
2023/11/15 09:32:16;;;;;;;3.33;2.47;;;;;;;11.72;84.47;100340.06;4958167;28;20034;-75
2023/11/15 09:34:41;;;;;;;2.70;1.80;;;;;;;11.72;84.55;100345.47;4956428;28;20649;-73
2023/11/15 09:37:07;;;;;;;2.60;1.75;;;;;;;11.67;84.42;100341.16;4953907;28;20039;-73
2023/11/15 09:39:33;;;;;;;2.60;1.65;;;;;;;11.78;83.26;100344.00;4954523;28;20050;-74
2023/11/15 09:41:58;;;;;;;3.95;2.35;;;;;;;11.83;83.70;100364.47;4952568;28;20024;-73
2023/11/15 09:44:25;;;;;;;3.03;1.88;;;;;;;11.91;83.00;100349.88;4956091;28;20127;-74
2023/11/15 09:46:57;;;;;;;3.08;1.70;;;;;;;11.96;82.52;100357.66;4970660;28;20070;-75
2023/11/15 09:49:25;;;;;;;4.18;2.00;;;;;;;12.07;82.40;100361.22;4966857;28;20038;-74
2023/11/15 09:51:52;;;;;;;3.28;1.63;;;;;;;12.10;81.57;100353.16;4955744;28;20034;-74
2023/11/15 09:54:20;;;;;;;2.55;1.52;;;;;;;12.10;81.24;100358.56;4952941;28;20023;-73
2023/11/15 09:56:48;;;;;;;3.42;1.67;;;;;;;12.24;80.08;100361.41;4953610;28;20425;-74
2023/11/15 09:59:14;;;;;;;1.92;1.20;;;;;;;12.22;79.11;100355.59;4971105;28;20042;-71
2023/11/15 10:01:44;;;;;;;1.58;1.23;;;;;;;12.22;79.34;100361.00;4963951;28;20493;-74
2023/11/15 10:04:26;;;;;;;1.50;1.33;;;;;;;12.25;78.87;100360.22;4969667;28;20386;-73
2023/11/15 10:06:52;;;;;;;1.98;1.23;;;;;;;12.32;78.56;100365.72;4952617;28;20041;-74
2023/11/15 10:09:42;;;;;;;1.90;1.02;;;;;;;12.36;78.37;100366.53;4971003;28;20118;-75
2023/11/15 10:12:08;;;;;;;2.35;1.38;;;;;;;12.45;78.13;100366.19;4959985;28;20443;-74
2023/11/15 10:14:48;;;;;;;1.73;1.35;;;;;;;12.41;77.32;100368.88;4962019;28;20127;-71
2023/11/15 10:17:13;;;;;;;1.77;1.38;;;;;;;12.59;75.98;100366.31;4968988;28;20047;-72
2023/11/15 10:19:39;;;;;;;1.40;1.20;;;;;;;12.62;76.05;100370.94;4950609;28;20039;-74
2023/11/15 10:22:04;;;;;;;2.75;1.60;;;;;;;12.64;76.01;100369.44;4932689;28;20034;-73
2023/11/15 10:24:31;;;;;;;4.80;1.15;;;;;;;12.74;75.68;100372.59;4953940;28;20073;-74
2023/11/15 10:27:06;;;;;;;2.42;1.60;;;;;;;12.76;74.89;100378.38;4935427;28;20060;-74
2023/11/15 10:29:31;;;;;;;1.45;1.15;;;;;;;12.82;72.73;100376.88;4953759;28;20109;-74
2023/11/15 10:32:00;;;;;;;6.97;1.30;;;;;;;12.73;73.92;100377.22;4952170;28;20082;-74
2023/11/15 10:34:31;;;;;;;2.20;1.30;;;;;;;12.76;74.22;100370.25;4955939;28;20033;-75
2023/11/15 10:37:10;;;;;;;1.20;1.10;;;;;;;12.76;74.27;100367.56;4958380;28;20046;-74
2023/11/15 10:39:46;;;;;;;1.35;1.02;;;;;;;12.64;75.22;100363.25;4957675;28;20126;-73
2023/11/15 10:42:13;;;;;;;1.13;1.02;;;;;;;12.43;76.05;100373.88;4953950;28;20091;-74
2023/11/15 10:44:41;;;;;;;2.88;1.55;;;;;;;12.37;75.70;100378.84;4953804;28;20035;-74
2023/11/15 10:47:08;;;;;;;2.05;1.23;;;;;;;12.41;74.72;100378.88;4939068;28;20035;-70
2023/11/15 10:49:42;;;;;;;2.63;1.60;;;;;;;12.39;75.61;100378.47;4940277;28;20047;-74
2023/11/15 10:52:08;;;;;;;2.92;1.50;;;;;;;12.50;75.16;100388.22;4936377;29;20166;-73
2023/11/15 10:54:35;;;;;;;2.17;1.50;;;;;;;12.36;76.91;100390.81;4956174;28;20042;-75
2023/11/15 10:57:03;;;;;;;2.55;1.55;;;;;;;12.33;77.80;100391.56;4953100;28;20035;-75
2023/11/15 10:59:36;;;;;;;2.53;1.17;;;;;;;12.52;77.45;100390.56;4953722;28;20577;-75
2023/11/15 11:02:05;;;;;;;3.05;2.22;;;;;;;12.57;76.75;100399.09;4949260;28;20034;-74
2023/11/15 11:04:36;;;;;;;2.13;1.42;;;;;;;12.69;74.89;100395.31;4972538;28;20043;-75
2023/11/15 11:07:30;;;;;;;2.13;1.58;;;;;;;12.62;74.73;100393.34;4954648;28;20044;-74
2023/11/15 11:10:42;;;;;;;2.58;1.65;;;;;;;12.65;74.17;100395.31;4939557;28;20720;-75
2023/11/15 11:13:23;;;;;;;2.53;1.65;;;;;;;12.59;75.41;100396.81;4950909;28;20628;-74
2023/11/15 11:15:49;;;;;;;2.30;1.55;;;;;;;12.63;76.42;100388.72;4972199;28;20105;-73
2023/11/15 11:18:18;;;;;;;3.90;1.63;;;;;;;12.71;74.72;100395.72;4961468;28;20567;-74
2023/11/15 11:20:59;;;;;;;1.63;1.25;;;;;;;12.75;72.78;100390.34;4949083;28;20031;-75
2023/11/15 11:23:26;;;;;;;2.25;1.50;;;;;;;12.48;75.63;100397.88;4958967;28;20035;-74
2023/11/15 11:25:56;;;;;;;1.23;1.13;;;;;;;12.68;74.98;100402.66;4956038;28;20130;-74
2023/11/15 11:28:22;;;;;;;2.05;1.40;;;;;;;12.78;73.86;100400.38;4951464;28;20042;-75